Time;durP1;ratioP1;P1;durP2;ratioP2;P2;SDS_P1;SDS_P2;PMS_P1;PMS_P2;Temp;Humidity;BMP_temperature;BMP_pressure;BME280_temperature;BME280_humidity;BME280_pressure;Samples;Min_cycle;Max_cycle;Signal;HPM_P1;HPM_P2
2021/07/10 00:02:09;;;;;;;0.88;0.88;;;27.60;55.90;;;;;;5008553;28;20153;-63
2021/07/10 00:04:37;;;;;;;1.25;1.25;;;27.60;55.90;;;;;;5008985;28;20084;-63
2021/07/10 00:07:04;;;;;;;1.20;1.10;;;27.60;55.90;;;;;;5008963;28;20535;-63
2021/07/10 00:09:32;;;;;;;1.17;1.08;;;27.60;55.90;;;;;;5008101;28;20081;-63
2021/07/10 00:11:59;;;;;;;1.02;1.02;;;27.60;55.90;;;;;;5008059;28;20057;-63
2021/07/10 00:14:26;;;;;;;1.35;1.30;;;27.60;55.80;;;;;;5008141;28;20085;-63
2021/07/10 00:16:55;;;;;;;1.10;1.00;;;27.60;55.80;;;;;;5009343;28;20052;-63
2021/07/10 00:19:24;;;;;;;1.02;1.02;;;27.70;55.90;;;;;;5008264;28;20054;-62
2021/07/10 00:21:51;;;;;;;1.02;1.02;;;27.60;55.80;;;;;;5008462;28;20046;-63
2021/07/10 00:24:19;;;;;;;1.50;1.40;;;27.70;55.90;;;;;;4991126;28;20101;-63
2021/07/10 00:26:46;;;;;;;1.30;1.20;;;27.60;55.80;;;;;;5008439;28;20450;-63
2021/07/10 00:29:13;;;;;;;1.20;1.10;;;27.60;55.80;;;;;;5009019;28;20125;-63
2021/07/10 00:31:40;;;;;;;1.35;1.00;;;27.60;55.80;;;;;;5008816;28;20125;-65
2021/07/10 00:34:08;;;;;;;1.30;1.15;;;27.60;55.80;;;;;;5008572;28;20072;-63
2021/07/10 00:36:35;;;;;;;1.20;1.10;;;27.60;55.80;;;;;;5008082;28;20487;-63
2021/07/10 00:39:02;;;;;;;1.10;1.10;;;27.60;55.80;;;;;;5008456;28;20046;-63
2021/07/10 00:41:30;;;;;;;0.90;0.90;;;27.60;55.80;;;;;;5008934;28;20125;-63
2021/07/10 00:43:57;;;;;;;1.15;1.15;;;27.60;55.80;;;;;;5007167;28;20634;-63
2021/07/10 00:46:24;;;;;;;1.30;1.25;;;27.60;55.80;;;;;;5008607;28;20132;-63
2021/07/10 00:48:51;;;;;;;1.02;1.02;;;27.60;55.80;;;;;;5007810;28;20078;-63
2021/07/10 00:51:19;;;;;;;0.80;0.80;;;27.60;55.80;;;;;;5008628;28;20056;-63
2021/07/10 00:53:48;;;;;;;0.80;0.80;;;27.60;55.70;;;;;;5008956;28;20046;-63
2021/07/10 00:56:16;;;;;;;1.35;1.25;;;27.60;55.70;;;;;;5008337;28;20052;-64
2021/07/10 00:58:45;;;;;;;0.98;0.98;;;27.60;55.70;;;;;;5008049;28;20130;-63
2021/07/10 01:01:12;;;;;;;0.98;0.98;;;27.60;55.70;;;;;;5006860;28;20060;-63
2021/07/10 01:03:44;;;;;;;1.35;1.25;;;27.60;55.70;;;;;;5007809;28;20056;-63
2021/07/10 01:06:13;;;;;;;1.00;1.00;;;27.60;55.70;;;;;;5007501;28;20092;-64
2021/07/10 01:08:41;;;;;;;1.05;1.05;;;27.60;55.70;;;;;;5008088;28;20049;-63
2021/07/10 01:11:09;;;;;;;1.02;1.02;;;27.60;55.70;;;;;;5008316;28;20133;-63
2021/07/10 01:13:37;;;;;;;1.10;1.10;;;27.50;55.60;;;;;;5007350;28;20121;-63
2021/07/10 01:16:05;;;;;;;1.23;1.23;;;27.50;55.70;;;;;;5008561;28;20053;-63
2021/07/10 01:18:32;;;;;;;1.10;1.00;;;27.60;55.70;;;;;;5008067;28;20074;-63
2021/07/10 01:21:00;;;;;;;1.15;1.15;;;27.60;55.70;;;;;;4990827;28;20060;-63
2021/07/10 01:23:27;;;;;;;0.98;0.98;;;27.60;55.70;;;;;;5012338;28;20054;-63
2021/07/10 01:25:55;;;;;;;0.60;0.60;;;27.50;55.60;;;;;;5011191;28;20046;-63
2021/07/10 01:28:23;;;;;;;1.20;1.20;;;27.50;55.60;;;;;;5011843;28;20153;-63
2021/07/10 01:30:52;;;;;;;0.95;0.95;;;27.60;55.60;;;;;;5012252;28;20073;-63
2021/07/10 01:33:19;;;;;;;0.90;0.90;;;27.60;55.60;;;;;;5011633;28;20064;-63
2021/07/10 01:35:46;;;;;;;0.80;0.80;;;27.60;55.60;;;;;;5012275;28;20050;-64
2021/07/10 01:38:15;;;;;;;1.10;1.10;;;27.60;55.60;;;;;;5011891;28;20111;-63
2021/07/10 01:40:43;;;;;;;1.38;0.75;;;27.60;56.20;;;;;;5010149;28;20089;-63
2021/07/10 01:43:12;;;;;;;0.90;0.90;;;27.60;55.60;;;;;;5012238;28;20133;-63
2021/07/10 01:45:39;;;;;;;1.00;0.90;;;27.60;55.60;;;;;;5011632;28;20125;-63
2021/07/10 01:48:10;;;;;;;0.85;0.85;;;27.60;55.70;;;;;;5012105;28;20056;-63
2021/07/10 01:50:37;;;;;;;;;;;27.60;55.70;;;;;;5011984;28;20046;-63
2021/07/10 01:53:05;;;;;;;1.10;1.10;;;27.50;55.70;;;;;;5011538;28;20408;-63
2021/07/10 01:55:32;;;;;;;0.80;0.80;;;27.50;55.70;;;;;;5011774;28;20184;-63
2021/07/10 01:58:01;;;;;;;1.10;1.10;;;27.50;55.70;;;;;;5010309;28;20495;-63
2021/07/10 02:00:33;;;;;;;0.90;0.90;;;27.50;55.70;;;;;;5011422;28;20097;-63
2021/07/10 02:03:01;;;;;;;0.85;0.85;;;27.50;55.70;;;;;;5010127;28;20049;-63
2021/07/10 02:05:29;;;;;;;0.88;0.88;;;27.50;55.70;;;;;;5010679;28;20045;-63
2021/07/10 02:07:58;;;;;;;0.90;0.90;;;27.50;55.80;;;;;;5011225;28;20092;-63
2021/07/10 02:10:29;;;;;;;0.90;0.90;;;27.50;55.80;;;;;;5011367;28;20045;-63
2021/07/10 02:13:00;;;;;;;0.93;0.93;;;27.50;55.80;;;;;;5012623;28;20085;-63
2021/07/10 02:15:27;;;;;;;0.80;0.80;;;27.50;55.80;;;;;;5028293;28;20088;-63
2021/07/10 02:17:55;;;;;;;0.80;0.80;;;27.50;55.80;;;;;;5010396;28;20046;-63
2021/07/10 02:20:23;;;;;;;0.90;0.90;;;27.50;55.80;;;;;;5010748;28;20129;-63
2021/07/10 02:22:51;;;;;;;0.82;0.82;;;27.50;55.80;;;;;;5011307;28;20118;-63
2021/07/10 02:25:20;;;;;;;1.13;1.02;;;27.50;55.80;;;;;;5009932;28;20128;-65
2021/07/10 02:27:47;;;;;;;1.00;1.00;;;27.50;55.80;;;;;;5009571;28;20084;-63
2021/07/10 02:30:18;;;;;;;0.80;0.80;;;27.50;55.90;;;;;;5010904;28;20077;-63
2021/07/10 02:32:46;;;;;;;0.90;0.90;;;27.50;55.90;;;;;;5008408;28;20132;-63
2021/07/10 02:35:15;;;;;;;0.90;0.90;;;27.50;55.90;;;;;;5010580;28;20056;-63
2021/07/10 02:37:44;;;;;;;0.70;0.70;;;27.50;55.80;;;;;;5010596;28;20045;-63
2021/07/10 02:40:12;;;;;;;1.05;1.05;;;27.50;55.80;;;;;;5011120;28;20772;-63
2021/07/10 02:42:40;;;;;;;0.60;0.60;;;27.50;55.90;;;;;;5010499;28;20570;-63
2021/07/10 02:45:09;;;;;;;1.23;0.75;;;27.50;55.80;;;;;;5010578;28;20124;-63
2021/07/10 02:47:37;;;;;;;1.00;1.00;;;27.50;55.80;;;;;;5025760;28;20133;-63
2021/07/10 02:50:11;;;;;;;0.80;0.80;;;27.50;55.70;;;;;;5009224;28;20157;-63
2021/07/10 02:52:39;;;;;;;0.68;0.68;;;27.50;55.70;;;;;;5010499;28;20050;-63
2021/07/10 02:55:07;;;;;;;0.70;0.70;;;27.50;55.70;;;;;;5010319;28;20054;-63
2021/07/10 02:57:34;;;;;;;0.68;0.68;;;27.50;55.70;;;;;;5010436;28;20517;-63
2021/07/10 03:00:05;;;;;;;0.90;0.90;;;27.50;55.70;;;;;;5010533;28;20050;-63
2021/07/10 03:02:33;;;;;;;0.80;0.80;;;27.50;55.60;;;;;;5009089;28;20570;-63
2021/07/10 03:05:00;;;;;;;0.50;0.50;;;27.50;55.70;;;;;;5010109;28;20050;-63
2021/07/10 03:07:27;;;;;;;0.88;0.88;;;27.50;55.60;;;;;;5010242;28;20136;-63
2021/07/10 03:09:55;;;;;;;0.82;0.82;;;27.50;55.60;;;;;;5010413;28;20138;-63
2021/07/10 03:12:22;;;;;;;0.85;0.77;;;27.50;55.70;;;;;;5010015;28;20649;-63
2021/07/10 03:14:49;;;;;;;0.90;0.90;;;27.50;55.70;;;;;;5010061;28;20072;-65
2021/07/10 03:17:16;;;;;;;0.70;0.70;;;27.50;55.70;;;;;;5010349;28;20053;-63
2021/07/10 03:19:43;;;;;;;0.52;0.52;;;27.50;55.70;;;;;;5010060;28;20272;-63
2021/07/10 03:22:10;;;;;;;0.98;0.98;;;27.50;55.70;;;;;;5009779;28;20109;-63
2021/07/10 03:24:37;;;;;;;0.98;0.98;;;27.50;55.60;;;;;;5009616;28;20506;-64
2021/07/10 03:27:04;;;;;;;0.45;0.45;;;27.50;55.60;;;;;;5009598;28;20193;-63
2021/07/10 03:29:31;;;;;;;0.52;0.52;;;27.50;55.60;;;;;;4992569;28;20435;-63
2021/07/10 03:31:58;;;;;;;0.75;0.75;;;27.40;55.50;;;;;;5009829;28;20563;-63
2021/07/10 03:34:26;;;;;;;0.50;0.50;;;27.50;56.10;;;;;;5010035;28;20053;-63
2021/07/10 03:36:53;;;;;;;0.73;0.73;;;27.50;55.50;;;;;;5010106;28;20064;-63
2021/07/10 03:39:21;;;;;;;0.68;0.68;;;27.50;55.50;;;;;;5008833;28;20088;-63
2021/07/10 03:41:48;;;;;;;0.80;0.80;;;27.50;55.50;;;;;;5009884;28;20139;-63
2021/07/10 03:44:16;;;;;;;0.93;0.70;;;27.50;55.50;;;;;;5009548;28;20141;-63
2021/07/10 03:46:43;;;;;;;0.60;0.60;;;27.50;55.50;;;;;;5009298;28;20042;-63
2021/07/10 03:49:10;;;;;;;0.73;0.73;;;27.50;55.40;;;;;;5008437;28;20093;-63
2021/07/10 03:51:37;;;;;;;0.80;0.80;;;27.50;55.40;;;;;;5008963;28;20411;-63
2021/07/10 03:54:04;;;;;;;0.50;0.50;;;27.50;55.30;;;;;;5009537;28;20084;-63
2021/07/10 03:56:32;;;;;;;0.85;0.85;;;27.50;55.20;;;;;;5008636;28;20046;-63
2021/07/10 03:58:59;;;;;;;0.50;0.50;;;27.50;55.20;;;;;;5009510;28;20074;-63
2021/07/10 04:01:26;;;;;;;0.70;0.70;;;27.60;55.10;;;;;;5007623;28;20105;-63
2021/07/10 04:03:53;;;;;;;0.50;0.50;;;27.60;55.10;;;;;;5008970;28;20058;-63
2021/07/10 04:06:20;;;;;;;0.40;0.40;;;27.60;55.00;;;;;;5008838;28;20138;-63
2021/07/10 04:08:47;;;;;;;0.47;0.47;;;27.60;54.90;;;;;;5008510;28;20127;-64
2021/07/10 04:11:14;;;;;;;1.20;0.60;;;27.60;54.80;;;;;;5009317;28;20072;-63
2021/07/10 04:13:41;;;;;;;0.50;0.50;;;27.60;54.80;;;;;;5008871;28;20054;-63
2021/07/10 04:16:10;;;;;;;0.50;0.50;;;27.60;54.70;;;;;;5008950;28;20136;-63
2021/07/10 04:18:37;;;;;;;0.55;0.55;;;27.70;54.70;;;;;;5008969;28;20041;-63
2021/07/10 04:21:05;;;;;;;0.57;0.57;;;27.70;54.60;;;;;;5008428;28;20057;-63
2021/07/10 04:23:32;;;;;;;0.63;0.63;;;27.70;54.60;;;;;;5009195;28;20598;-63
2021/07/10 04:25:59;;;;;;;0.60;0.60;;;27.70;54.40;;;;;;5008558;28;20499;-63
2021/07/10 04:28:26;;;;;;;0.40;0.40;;;27.80;54.50;;;;;;5008277;28;20078;-63
2021/07/10 04:30:53;;;;;;;0.52;0.52;;;27.70;54.30;;;;;;5009205;28;20053;-63
2021/07/10 04:33:21;;;;;;;0.55;0.55;;;27.80;54.40;;;;;;5008878;28;20116;-63
2021/07/10 04:35:48;;;;;;;0.40;0.40;;;27.80;54.30;;;;;;5009003;28;20128;-63
2021/07/10 04:38:15;;;;;;;0.38;0.38;;;27.80;54.30;;;;;;5008776;28;20082;-63
2021/07/10 04:40:43;;;;;;;0.68;0.68;;;27.90;54.80;;;;;;5008709;28;20050;-63
2021/07/10 04:43:11;;;;;;;0.47;0.47;;;27.90;54.20;;;;;;5008454;28;20140;-63
2021/07/10 04:45:40;;;;;;;0.70;0.70;;;27.90;54.10;;;;;;5008744;28;20207;-63
2021/07/10 04:48:07;;;;;;;0.60;0.60;;;28.00;54.10;;;;;;5008652;28;20169;-63
2021/07/10 04:50:35;;;;;;;0.60;0.60;;;28.00;54.00;;;;;;5008031;28;20133;-63
2021/07/10 04:53:03;;;;;;;0.68;0.68;;;28.00;53.90;;;;;;5007554;28;20061;-63
2021/07/10 04:55:30;;;;;;;0.40;0.40;;;28.00;53.90;;;;;;5007718;28;20050;-63
2021/07/10 04:57:58;;;;;;;0.40;0.40;;;28.00;53.80;;;;;;5008217;28;20087;-63
2021/07/10 05:00:27;;;;;;;0.60;0.60;;;28.10;53.80;;;;;;5007999;28;20077;-63
2021/07/10 05:02:54;;;;;;;0.60;0.60;;;28.10;53.70;;;;;;5008326;28;20136;-63
2021/07/10 05:05:21;;;;;;;0.65;0.65;;;28.10;53.60;;;;;;5008332;28;20065;-63
2021/07/10 05:07:48;;;;;;;0.32;0.32;;;28.10;53.50;;;;;;5008216;28;20484;-63
2021/07/10 05:10:16;;;;;;;0.55;0.55;;;28.00;53.70;;;;;;5007887;28;20085;-63
2021/07/10 05:12:44;;;;;;;0.52;0.52;;;27.90;53.80;;;;;;5008002;28;20061;-63
2021/07/10 05:15:12;;;;;;;0.50;0.50;;;27.80;54.10;;;;;;5007578;28;20096;-63
2021/07/10 05:17:39;;;;;;;0.90;0.57;;;27.70;54.40;;;;;;5008147;28;20049;-63
2021/07/10 05:20:08;;;;;;;0.60;0.60;;;27.60;54.70;;;;;;5008115;28;20050;-63
2021/07/10 05:22:35;;;;;;;0.60;0.60;;;27.40;54.70;;;;;;5007339;28;20129;-63
2021/07/10 05:25:03;;;;;;;0.40;0.40;;;27.20;54.60;;;;;;5008502;28;20070;-63
2021/07/10 05:27:30;;;;;;;0.40;0.40;;;27.00;54.40;;;;;;5039221;28;20132;-64
2021/07/10 05:29:57;;;;;;;0.75;0.50;;;26.90;54.20;;;;;;5007885;28;20042;-63
2021/07/10 05:32:24;;;;;;;0.60;0.60;;;26.70;54.10;;;;;;5008041;28;20124;-63
2021/07/10 05:34:52;;;;;;;0.60;0.47;;;26.50;54.00;;;;;;5007835;28;20138;-63
2021/07/10 05:37:19;;;;;;;0.70;0.70;;;26.40;54.00;;;;;;5006718;28;20046;-63
2021/07/10 05:39:46;;;;;;;0.40;0.40;;;26.30;54.10;;;;;;5007950;28;20046;-63
2021/07/10 05:42:13;;;;;;;0.50;0.50;;;26.10;53.90;;;;;;5008237;28;20434;-63
2021/07/10 05:44:40;;;;;;;0.50;0.50;;;26.00;54.10;;;;;;5007236;28;20132;-63
2021/07/10 05:47:07;;;;;;;0.50;0.50;;;25.90;54.20;;;;;;5007495;28;20403;-63
2021/07/10 05:49:34;;;;;;;0.52;0.40;;;25.80;54.70;;;;;;5007567;28;20084;-63
2021/07/10 05:52:02;;;;;;;0.60;0.60;;;25.70;54.80;;;;;;5007371;28;20081;-64
2021/07/10 05:54:29;;;;;;;0.52;0.52;;;25.60;54.90;;;;;;5008258;28;20108;-63
2021/07/10 05:56:56;;;;;;;0.50;0.50;;;25.60;55.20;;;;;;5007661;28;20883;-62
2021/07/10 05:59:23;;;;;;;0.50;0.50;;;25.50;55.20;;;;;;5007666;28;20064;-62
2021/07/10 06:01:50;;;;;;;0.40;0.40;;;25.50;55.40;;;;;;5007664;28;20049;-63
2021/07/10 06:04:17;;;;;;;0.40;0.40;;;25.40;55.40;;;;;;5007394;28;20491;-63
2021/07/10 06:06:46;;;;;;;0.40;0.40;;;25.40;55.60;;;;;;5007993;28;20049;-63
2021/07/10 06:09:13;;;;;;;2.10;0.60;;;25.40;55.60;;;;;;5009432;28;20041;-63
2021/07/10 06:11:40;;;;;;;0.50;0.50;;;25.40;55.80;;;;;;5014857;28;20949;-63
2021/07/10 06:14:08;;;;;;;0.30;0.30;;;25.40;55.80;;;;;;5015004;28;20081;-63
2021/07/10 06:16:36;;;;;;;0.50;0.50;;;25.40;56.10;;;;;;5015156;28;20132;-63
2021/07/10 06:19:04;;;;;;;0.70;0.70;;;25.30;56.10;;;;;;5015334;28;20081;-63
2021/07/10 06:21:31;;;;;;;0.30;0.30;;;25.30;56.20;;;;;;5015191;28;20084;-63
2021/07/10 06:23:59;;;;;;;0.45;0.45;;;25.30;56.40;;;;;;5015974;28;20057;-64
2021/07/10 06:26:26;;;;;;;0.40;0.40;;;25.30;56.50;;;;;;5010306;28;20132;-63
2021/07/10 06:28:53;;;;;;;0.35;0.35;;;25.30;56.70;;;;;;5010883;28;20132;-63
2021/07/10 06:31:20;;;;;;;0.50;0.50;;;25.30;56.70;;;;;;5010490;28;20057;-63
2021/07/10 06:33:48;;;;;;;0.57;0.57;;;25.20;56.90;;;;;;5010655;28;20079;-63
2021/07/10 06:36:17;;;;;;;0.50;0.50;;;25.30;56.90;;;;;;5010662;28;20402;-63
2021/07/10 06:38:45;;;;;;;0.47;0.47;;;25.30;56.90;;;;;;5009775;28;20052;-64
2021/07/10 06:41:12;;;;;;;0.52;0.52;;;25.30;57.00;;;;;;5010135;28;20140;-61
2021/07/10 06:43:39;;;;;;;0.52;0.52;;;25.30;57.10;;;;;;5009966;28;20078;-63
2021/07/10 06:46:07;;;;;;;0.60;0.60;;;25.30;57.10;;;;;;5010085;28;20071;-63
2021/07/10 06:48:36;;;;;;;0.40;0.40;;;25.30;57.10;;;;;;5010463;28;20080;-63
2021/07/10 06:51:04;;;;;;;0.38;0.38;;;25.30;57.10;;;;;;5008987;28;20052;-63
2021/07/10 06:53:31;;;;;;;0.40;0.40;;;25.40;57.20;;;;;;5010613;28;20515;-63
2021/07/10 06:55:58;;;;;;;0.50;0.50;;;25.40;57.00;;;;;;5010107;28;20081;-63
2021/07/10 06:58:25;;;;;;;0.40;0.40;;;25.40;56.90;;;;;;5010038;28;20141;-63
2021/07/10 07:00:52;;;;;;;0.38;0.38;;;25.40;57.10;;;;;;5010377;28;20081;-63
2021/07/10 07:03:19;;;;;;;0.50;0.50;;;25.40;56.90;;;;;;5010192;28;20080;-63
2021/07/10 07:05:47;;;;;;;0.40;0.40;;;25.50;56.80;;;;;;5009854;28;20053;-63
2021/07/10 07:08:14;;;;;;;0.43;0.40;;;25.50;56.70;;;;;;5010563;28;20050;-63
2021/07/10 07:10:41;;;;;;;0.40;0.40;;;25.50;56.70;;;;;;5009983;28;20141;-63
2021/07/10 07:13:08;;;;;;;0.43;0.38;;;25.50;56.80;;;;;;5010192;28;20133;-63
2021/07/10 07:15:37;;;;;;;0.28;0.28;;;25.50;56.90;;;;;;5009928;28;20050;-63
2021/07/10 07:18:04;;;;;;;0.40;0.40;;;25.50;56.90;;;;;;5009527;28;20153;-63
2021/07/10 07:20:32;;;;;;;0.20;0.20;;;25.50;56.90;;;;;;5009197;28;20743;-63
2021/07/10 07:22:59;;;;;;;0.30;0.30;;;25.50;56.80;;;;;;5009701;28;20500;-63
2021/07/10 07:25:26;;;;;;;0.40;0.40;;;25.50;56.90;;;;;;5009995;28;20077;-63
2021/07/10 07:27:54;;;;;;;0.30;0.30;;;25.50;57.50;;;;;;5009861;28;20060;-63
2021/07/10 07:30:21;;;;;;;0.30;0.30;;;25.50;56.80;;;;;;5009672;28;20506;-63
2021/07/10 07:32:49;;;;;;;0.20;0.20;;;25.50;56.80;;;;;;5009632;28;20073;-63
2021/07/10 07:35:16;;;;;;;0.88;0.28;;;25.50;56.80;;;;;;5010070;28;20053;-63
2021/07/10 07:37:44;;;;;;;0.13;0.13;;;25.50;56.80;;;;;;5009996;28;20549;-63
2021/07/10 07:40:16;;;;;;;0.20;0.20;;;25.50;56.80;;;;;;5009230;28;20078;-63
2021/07/10 07:42:45;;;;;;;0.30;0.30;;;25.50;56.70;;;;;;5010128;28;20113;-63
2021/07/10 07:45:13;;;;;;;0.25;0.25;;;25.60;56.80;;;;;;5009202;28;20049;-63
2021/07/10 07:47:41;;;;;;;0.20;0.20;;;25.60;56.70;;;;;;5009398;28;20137;-63
2021/07/10 07:50:11;;;;;;;0.35;0.35;;;25.60;56.80;;;;;;5009375;28;20077;-63
2021/07/10 07:52:39;;;;;;;0.40;0.40;;;25.60;56.70;;;;;;5009600;28;20049;-63
2021/07/10 07:55:09;;;;;;;0.22;0.22;;;25.60;56.60;;;;;;5008561;28;20045;-63
2021/07/10 07:57:37;;;;;;;0.25;0.25;;;25.60;56.60;;;;;;5007931;28;20137;-63
2021/07/10 08:00:09;;;;;;;0.30;0.30;;;25.70;56.70;;;;;;5009345;28;20149;-63
2021/07/10 08:02:37;;;;;;;0.85;0.60;;;25.70;56.60;;;;;;5009304;28;20475;-63
2021/07/10 08:05:05;;;;;;;0.30;0.22;;;25.70;56.70;;;;;;5009192;28;20088;-63
2021/07/10 08:07:32;;;;;;;0.30;0.30;;;25.70;56.60;;;;;;5008037;28;20153;-63
2021/07/10 08:10:05;;;;;;;0.20;0.20;;;25.80;56.70;;;;;;5008921;28;20054;-63
2021/07/10 08:12:32;;;;;;;0.30;0.30;;;25.80;56.60;;;;;;5008973;28;20120;-63
2021/07/10 08:15:00;;;;;;;0.20;0.20;;;25.80;56.40;;;;;;5008803;28;20073;-63
2021/07/10 08:17:28;;;;;;;0.35;0.35;;;25.80;56.30;;;;;;5023811;28;20049;-63
2021/07/10 08:19:56;;;;;;;0.15;0.15;;;25.80;56.30;;;;;;5008716;28;20137;-63
2021/07/10 08:22:26;;;;;;;0.28;0.28;;;25.80;56.30;;;;;;5009118;28;20050;-63
2021/07/10 08:24:53;;;;;;;0.20;0.20;;;25.90;56.40;;;;;;5008779;28;20052;-63
2021/07/10 08:27:20;;;;;;;0.22;0.22;;;25.90;56.30;;;;;;5008426;28;20084;-63
2021/07/10 08:29:47;;;;;;;0.30;0.30;;;25.90;56.30;;;;;;5008841;28;20069;-63
2021/07/10 08:32:15;;;;;;;0.45;0.45;;;25.80;56.80;;;;;;4990451;28;20140;-63
2021/07/10 08:34:42;;;;;;;0.20;0.20;;;25.80;56.30;;;;;;5009698;28;20483;-63
2021/07/10 08:37:10;;;;;;;0.20;0.20;;;25.80;56.40;;;;;;5009048;28;20507;-63
2021/07/10 08:39:37;;;;;;;0.30;0.30;;;25.80;56.40;;;;;;5008626;28;20197;-63
2021/07/10 08:42:04;;;;;;;0.20;0.20;;;25.80;56.50;;;;;;5008497;28;20149;-63
2021/07/10 08:44:34;;;;;;;0.25;0.25;;;25.70;56.60;;;;;;5008607;28;20085;-63
2021/07/10 08:47:02;;;;;;;0.20;0.20;;;25.70;56.60;;;;;;5008384;28;20046;-63
2021/07/10 08:49:32;;;;;;;0.20;0.20;;;25.70;56.70;;;;;;5023526;28;20763;-63
2021/07/10 08:52:00;;;;;;;0.13;0.13;;;25.70;56.80;;;;;;5008241;28;20077;-62
2021/07/10 08:54:27;;;;;;;0.20;0.20;;;25.70;56.70;;;;;;5008552;28;20056;-64
2021/07/10 08:56:55;;;;;;;0.10;0.10;;;25.70;56.80;;;;;;5008127;28;20137;-63
2021/07/10 08:59:22;;;;;;;0.20;0.20;;;25.60;56.80;;;;;;5006731;28;20074;-63
2021/07/10 09:01:53;;;;;;;0.28;0.28;;;25.60;57.00;;;;;;5008375;28;20133;-63
2021/07/10 09:04:21;;;;;;;0.30;0.30;;;25.60;56.90;;;;;;5006012;28;20092;-63
2021/07/10 09:06:50;;;;;;;0.90;0.75;;;25.60;56.90;;;;;;5004822;28;20056;-63
2021/07/10 09:09:18;;;;;;;0.30;0.30;;;25.60;56.90;;;;;;5007929;28;20128;-63
2021/07/10 09:12:00;;;;;;;0.20;0.20;;;25.60;57.00;;;;;;5008381;28;20077;-63
2021/07/10 09:14:29;;;;;;;0.30;0.30;;;25.60;57.00;;;;;;5008107;28;20065;-63
2021/07/10 09:17:12;;;;;;;0.20;0.20;;;25.60;57.10;;;;;;5007860;28;20506;-63
2021/07/10 09:19:39;;;;;;;0.20;0.20;;;25.60;57.00;;;;;;5007931;28;20050;-64
2021/07/10 09:22:07;;;;;;;0.13;0.13;;;25.60;57.00;;;;;;5007851;28;20093;-62
2021/07/10 09:24:36;;;;;;;0.30;0.30;;;25.60;57.00;;;;;;5007674;28;20137;-63
2021/07/10 09:27:06;;;;;;;0.20;0.20;;;25.60;57.10;;;;;;5007652;28;20077;-63
2021/07/10 09:29:41;;;;;;;0.30;0.17;;;25.60;57.00;;;;;;5007922;28;20553;-63
2021/07/10 09:32:11;;;;;;;0.40;0.40;;;25.60;56.90;;;;;;5008108;28;20045;-63
2021/07/10 09:34:41;;;;;;;;;;;25.60;56.90;;;;;;5008362;28;20104;-63
2021/07/10 09:37:17;;;;;;;0.30;0.30;;;25.60;56.90;;;;;;5008045;28;19921;-63
2021/07/10 09:40:09;;;;;;;0.20;0.20;;;25.60;56.80;;;;;;5033870;28;20163;-63
2021/07/10 09:42:40;;;;;;;0.20;0.20;;;25.60;56.80;;;;;;5008823;28;20058;-62
2021/07/10 09:45:14;;;;;;;0.40;0.30;;;25.60;56.80;;;;;;5011684;28;20096;-63
2021/07/10 09:47:42;;;;;;;0.20;0.20;;;25.60;56.90;;;;;;5011909;28;20078;-63
2021/07/10 09:50:17;;;;;;;0.20;0.20;;;25.60;56.80;;;;;;5011961;28;20050;-63
2021/07/10 09:52:45;;;;;;;0.30;0.30;;;25.60;56.80;;;;;;5011357;28;20045;-63
2021/07/10 09:55:16;;;;;;;0.10;0.10;;;25.60;56.90;;;;;;5011578;28;20128;-62
2021/07/10 09:57:46;;;;;;;0.20;0.20;;;25.60;56.80;;;;;;5011737;28;20399;-63
2021/07/10 10:00:17;;;;;;;0.40;0.17;;;25.60;56.90;;;;;;4994221;28;20056;-62
2021/07/10 10:02:49;;;;;;;0.10;0.10;;;25.60;56.90;;;;;;5011403;28;20630;-62
2021/07/10 10:05:19;;;;;;;0.38;0.38;;;25.60;56.90;;;;;;5011245;28;20054;-63
2021/07/10 10:07:51;;;;;;;0.25;0.25;;;25.60;56.90;;;;;;5011712;28;20060;-63
2021/07/10 10:10:29;;;;;;;0.20;0.20;;;25.60;56.80;;;;;;5010675;28;20086;-63
2021/07/10 10:13:17;;;;;;;0.20;0.20;;;25.60;56.80;;;;;;5010772;28;20129;-62
2021/07/10 10:15:52;;;;;;;0.22;0.22;;;25.60;56.60;;;;;;5011225;28;20696;-63
2021/07/10 10:18:22;;;;;;;0.20;0.20;;;25.60;56.60;;;;;;5011424;28;20056;-62
2021/07/10 10:20:53;;;;;;;0.20;0.20;;;25.60;56.50;;;;;;5010771;28;20129;-62
2021/07/10 10:23:22;;;;;;;0.20;0.20;;;25.50;56.30;;;;;;5010786;28;20137;-63
2021/07/10 10:25:50;;;;;;;0.10;0.10;;;25.50;56.30;;;;;;5011299;28;20097;-63
2021/07/10 10:28:21;;;;;;;0.85;0.20;;;25.50;56.20;;;;;;5010266;28;20046;-63
2021/07/10 10:30:50;;;;;;;0.13;0.13;;;25.50;56.20;;;;;;5009466;28;20502;-63
2021/07/10 10:33:17;;;;;;;0.10;0.10;;;25.40;56.00;;;;;;5010276;28;20054;-63
2021/07/10 10:35:46;;;;;;;0.20;0.20;;;25.40;56.00;;;;;;5010145;28;20048;-63
2021/07/10 10:38:14;;;;;;;0.20;0.20;;;25.40;55.90;;;;;;5009586;28;20088;-63
2021/07/10 10:40:42;;;;;;;0.38;0.30;;;25.40;55.90;;;;;;5010359;28;20130;-63
2021/07/10 10:43:14;;;;;;;0.13;0.13;;;25.40;55.80;;;;;;5011040;28;20137;-62
2021/07/10 10:45:42;;;;;;;0.35;0.10;;;25.30;55.70;;;;;;5010869;28;20443;-63
2021/07/10 10:48:09;;;;;;;0.20;0.20;;;25.30;55.70;;;;;;5010449;28;20042;-62
2021/07/10 10:50:39;;;;;;;0.22;0.22;;;25.30;55.60;;;;;;5010553;28;20450;-62
2021/07/10 10:53:08;;;;;;;0.40;0.10;;;25.30;55.50;;;;;;5009968;28;20522;-63
2021/07/10 10:55:40;;;;;;;0.10;0.10;;;25.30;55.70;;;;;;5010003;28;20479;-63
2021/07/10 10:58:26;;;;;;;0.20;0.20;;;25.20;55.50;;;;;;5010359;28;20329;-64
2021/07/10 11:01:07;;;;;;;0.10;0.10;;;25.20;55.60;;;;;;5010492;28;20046;-62
2021/07/10 11:03:37;;;;;;;0.30;0.30;;;25.20;55.70;;;;;;5010577;28;20159;-63
2021/07/10 11:06:05;;;;;;;0.20;0.20;;;25.20;55.80;;;;;;5010283;28;20153;-63
2021/07/10 11:08:35;;;;;;;0.22;0.22;;;25.20;55.80;;;;;;5010246;28;20081;-62
2021/07/10 11:11:22;;;;;;;0.10;0.10;;;25.20;55.80;;;;;;5009868;28;20077;-63
2021/07/10 11:13:59;;;;;;;0.20;0.20;;;25.20;55.90;;;;;;5010255;28;20822;-62
2021/07/10 11:16:27;;;;;;;1.65;0.10;;;25.10;55.80;;;;;;5009339;28;20145;-62
2021/07/10 11:19:06;;;;;;;0.10;0.10;;;25.10;55.80;;;;;;5008857;28;20499;-63
2021/07/10 11:21:41;;;;;;;0.10;0.10;;;25.10;55.90;;;;;;5009713;28;20050;-62
2021/07/10 11:24:22;;;;;;;0.17;0.17;;;25.10;55.90;;;;;;5009706;28;20142;-63
2021/07/10 11:27:21;;;;;;;0.10;0.10;;;25.10;56.00;;;;;;5010308;28;20149;-62
2021/07/10 11:29:48;;;;;;;0.10;0.10;;;25.10;56.00;;;;;;5008925;28;20491;-63
2021/07/10 11:32:25;;;;;;;0.57;0.10;;;25.10;56.00;;;;;;4992966;28;20049;-62
2021/07/10 11:34:57;;;;;;;0.20;0.20;;;25.10;56.10;;;;;;5009572;28;20084;-63
2021/07/10 11:37:39;;;;;;;0.20;0.20;;;25.10;56.20;;;;;;5010111;28;20087;-63
2021/07/10 11:40:07;;;;;;;0.10;0.10;;;25.10;56.20;;;;;;5009111;28;20137;-63
2021/07/10 11:42:44;;;;;;;0.10;0.10;;;25.10;56.20;;;;;;5024093;28;20056;-63
2021/07/10 11:45:24;;;;;;;0.10;0.10;;;25.10;56.30;;;;;;5007156;28;20054;-63
2021/07/10 11:47:55;;;;;;;0.10;0.10;;;25.10;56.20;;;;;;5006170;28;20077;-62
2021/07/10 11:50:30;;;;;;;0.25;0.25;;;25.10;56.20;;;;;;5009563;28;20084;-63
2021/07/10 11:53:11;;;;;;;0.17;0.17;;;25.10;56.40;;;;;;5009584;28;20054;-63
2021/07/10 11:55:41;;;;;;;0.10;0.10;;;25.10;56.30;;;;;;5009389;28;20072;-63
2021/07/10 11:58:12;;;;;;;0.20;0.20;;;25.10;56.30;;;;;;5009422;28;20088;-64
2021/07/10 12:00:40;;;;;;;0.10;0.10;;;25.10;56.30;;;;;;5008763;28;20125;-63
2021/07/10 12:03:19;;;;;;;0.17;0.17;;;25.10;56.20;;;;;;5009187;28;20046;-63
2021/07/10 12:05:47;;;;;;;0.10;0.10;;;25.10;56.20;;;;;;5008684;28;20088;-63
2021/07/10 12:08:15;;;;;;;0.17;0.13;;;25.20;56.30;;;;;;5009556;28;20129;-63
2021/07/10 12:10:44;;;;;;;0.10;0.10;;;25.20;56.30;;;;;;5009151;28;20057;-63
2021/07/10 12:13:22;;;;;;;1.27;0.30;;;25.20;56.30;;;;;;5009285;28;20121;-63
2021/07/10 12:16:02;;;;;;;0.10;0.10;;;25.20;56.30;;;;;;5009354;28;20094;-63
2021/07/10 12:18:34;;;;;;;0.10;0.10;;;25.20;56.30;;;;;;5008898;28;20418;-63
2021/07/10 12:21:06;;;;;;;0.40;0.20;;;25.20;56.30;;;;;;5009021;28;20137;-63
2021/07/10 12:23:39;;;;;;;0.30;0.30;;;25.30;56.40;;;;;;5008938;28;20133;-63
2021/07/10 12:26:11;;;;;;;0.10;0.10;;;25.30;56.30;;;;;;5009205;28;20057;-63
2021/07/10 12:28:49;;;;;;;0.10;0.10;;;25.30;56.20;;;;;;5008447;28;20488;-63
2021/07/10 12:31:20;;;;;;;0.10;0.10;;;25.30;56.20;;;;;;5007313;28;20088;-63
2021/07/10 12:34:00;;;;;;;0.25;0.25;;;25.30;56.20;;;;;;5009222;28;20104;-63
2021/07/10 12:36:35;;;;;;;0.20;0.20;;;25.30;56.30;;;;;;5006976;28;20049;-63
2021/07/10 12:39:09;;;;;;;0.10;0.10;;;25.30;56.20;;;;;;5008621;28;20718;-63
2021/07/10 12:41:49;;;;;;;0.10;0.10;;;25.30;56.20;;;;;;5008363;28;20109;-65
2021/07/10 12:44:25;;;;;;;0.10;0.10;;;25.30;56.30;;;;;;5008820;28;20168;-64
2021/07/10 12:47:12;;;;;;;0.10;0.10;;;25.30;56.40;;;;;;5008608;28;20076;-63
2021/07/10 12:49:49;;;;;;;0.17;0.17;;;25.30;56.30;;;;;;5009025;28;20137;-63
2021/07/10 12:52:29;;;;;;;0.10;0.10;;;25.30;56.40;;;;;;5008142;28;20636;-63
2021/07/10 12:55:06;;;;;;;0.13;0.13;;;25.30;56.40;;;;;;5008459;28;20152;-63
2021/07/10 12:57:50;;;;;;;0.20;0.20;;;25.30;56.40;;;;;;5008381;28;20105;-63
2021/07/10 13:00:28;;;;;;;0.20;0.10;;;25.30;56.40;;;;;;5007666;28;20521;-63